Time;durP1;ratioP1;P1;durP2;ratioP2;P2;SDS_P1;SDS_P2;PMS_P1;PMS_P2;Temp;Humidity;BMP_temperature;BMP_pressure;BME280_temperature;BME280_humidity;BME280_pressure;Samples;Min_cycle;Max_cycle;Signal;HPM_P1;HPM_P2
2023/02/24 00:00:50;;;;;;;9.55;1.77;;;7.40;99.90;;;;;;4433269;32;20073;-62
2023/02/24 00:03:15;;;;;;;1.90;1.58;;;7.50;99.90;;;;;;4418740;32;20086;-62
2023/02/24 00:05:43;;;;;;;4.22;2.37;;;7.40;99.90;;;;;;4417750;32;20085;-62
2023/02/24 00:08:09;;;;;;;6.82;1.90;;;7.40;99.90;;;;;;4427528;32;20073;-64
2023/02/24 00:10:36;;;;;;;14.55;2.53;;;7.30;99.90;;;;;;4430225;32;20089;-63
2023/02/24 00:13:02;;;;;;;1.08;0.90;;;7.40;99.90;;;;;;4431244;32;20108;-64
2023/02/24 00:15:27;;;;;;;5.07;2.47;;;7.40;99.90;;;;;;4431724;32;20798;-64
2023/02/24 00:17:52;;;;;;;1.60;1.27;;;7.40;99.90;;;;;;4427746;32;20078;-63
2023/02/24 00:20:18;;;;;;;1.42;1.30;;;7.40;99.90;;;;;;4432293;32;20064;-65
2023/02/24 00:22:44;;;;;;;6.32;1.37;;;7.40;99.90;;;;;;4431369;32;20526;-62
2023/02/24 00:25:11;;;;;;;0.93;0.82;;;7.40;99.90;;;;;;4433577;32;20135;-65
2023/02/24 00:27:37;;;;;;;3.72;2.00;;;7.40;99.90;;;;;;4430916;32;20582;-61
2023/02/24 00:30:04;;;;;;;5.37;1.90;;;7.40;99.90;;;;;;4405858;32;20061;-62
2023/02/24 00:32:30;;;;;;;2.05;1.85;;;7.40;99.90;;;;;;4429220;32;20080;-62
2023/02/24 00:34:55;;;;;;;3.83;1.70;;;7.30;99.90;;;;;;4429755;32;21824;-62
2023/02/24 00:37:22;;;;;;;1.90;1.23;;;7.30;99.90;;;;;;4431376;32;20470;-64
2023/02/24 00:39:49;;;;;;;3.85;1.67;;;7.30;99.90;;;;;;4430981;32;20192;-64
2023/02/24 00:42:15;;;;;;;5.30;3.10;;;7.30;99.90;;;;;;4418881;32;21396;-62
2023/02/24 00:44:44;;;;;;;2.87;1.48;;;7.30;99.90;;;;;;4433323;32;20097;-62
2023/02/24 00:47:11;;;;;;;8.70;1.92;;;7.40;99.90;;;;;;4409236;32;20454;-62
2023/02/24 00:49:41;;;;;;;24.65;2.67;;;7.30;99.90;;;;;;4412709;32;20112;-62
2023/02/24 00:52:08;;;;;;;0.57;0.57;;;7.40;99.90;;;;;;4430577;32;20540;-62
2023/02/24 00:54:35;;;;;;;4.18;2.30;;;7.40;99.90;;;;;;4429952;32;20495;-66
2023/02/24 00:57:01;;;;;;;2.22;1.23;;;7.30;99.90;;;;;;4427574;32;20077;-65
2023/02/24 00:59:27;;;;;;;2.72;1.83;;;7.20;99.90;;;;;;4430492;32;20119;-64
2023/02/24 01:01:53;;;;;;;2.95;1.42;;;7.20;99.90;;;;;;4415256;32;20077;-63
2023/02/24 01:04:19;;;;;;;7.35;1.92;;;7.20;99.90;;;;;;4416075;32;20101;-65
2023/02/24 01:06:50;;;;;;;1.17;1.05;;;7.10;99.90;;;;;;4427051;32;20061;-64
2023/02/24 01:09:18;;;;;;;2.97;1.30;;;7.00;99.90;;;;;;4411842;32;20077;-63
2023/02/24 01:12:37;;;;;;;3.42;0.93;;;7.00;99.90;;;;;;4411988;32;20133;-64
2023/02/24 01:14:33;;;;;;;1.45;1.30;;;6.80;99.90;;;;;;4416464;32;20560;-62
2023/02/24 01:16:58;;;;;;;3.10;1.75;;;6.80;99.90;;;;;;4412936;32;20087;-65
2023/02/24 01:19:30;;;;;;;0.82;0.82;;;6.70;99.90;;;;;;4430511;32;20105;-62
2023/02/24 01:21:56;;;;;;;3.92;1.65;;;6.60;99.90;;;;;;4414364;32;20235;-63
2023/02/24 01:24:23;;;;;;;1.05;1.00;;;6.60;99.90;;;;;;4432018;32;20068;-63
2023/02/24 01:26:48;;;;;;;0.95;0.95;;;6.50;99.90;;;;;;4415519;32;20073;-65
2023/02/24 01:29:14;;;;;;;5.55;1.33;;;6.40;99.90;;;;;;4430208;32;20112;-62
2023/02/24 01:31:42;;;;;;;4.12;1.58;;;6.30;99.90;;;;;;4415179;32;20073;-65
2023/02/24 01:34:09;;;;;;;0.52;0.52;;;6.20;99.90;;;;;;4411666;32;21633;-63
2023/02/24 01:36:36;;;;;;;0.35;0.35;;;6.10;99.90;;;;;;4429158;32;20057;-61
2023/02/24 01:39:04;;;;;;;17.48;2.25;;;6.00;99.90;;;;;;4411511;32;20120;-62
2023/02/24 01:41:30;;;;;;;1.67;0.85;;;6.00;99.90;;;;;;4403901;32;20082;-64
2023/02/24 01:44:17;;;;;;;0.37;0.37;;;6.00;99.90;;;;;;4403412;32;20065;-64
2023/02/24 01:46:44;;;;;;;0.40;0.40;;;5.90;99.90;;;;;;4414579;32;20419;-63
2023/02/24 01:49:35;;;;;;;2.92;2.15;;;5.90;99.90;;;;;;4413624;32;20093;-62
2023/02/24 01:52:18;;;;;;;1.12;1.10;;;5.90;99.90;;;;;;4405161;32;20074;-63
2023/02/24 01:54:53;;;;;;;3.10;0.82;;;5.90;99.90;;;;;;4429740;32;20084;-62
2023/02/24 01:57:22;;;;;;;0.82;0.70;;;5.80;99.90;;;;;;4428704;32;20517;-62
2023/02/24 01:59:50;;;;;;;0.20;0.20;;;5.80;99.90;;;;;;4413474;32;20327;-61
2023/02/24 02:02:18;;;;;;;0.75;0.70;;;5.80;99.90;;;;;;4429411;32;20629;-61
2023/02/24 02:05:04;;;;;;;2.50;1.12;;;5.90;99.90;;;;;;4429565;32;20098;-62
2023/02/24 02:07:30;;;;;;;0.40;0.40;;;5.90;99.90;;;;;;4405612;32;20061;-62
2023/02/24 02:09:59;;;;;;;0.50;0.50;;;5.80;99.90;;;;;;4414679;32;20544;-62
2023/02/24 02:12:26;;;;;;;0.60;0.60;;;5.70;99.90;;;;;;4412577;32;20074;-63
2023/02/24 02:14:54;;;;;;;10.43;3.22;;;5.70;99.90;;;;;;4430938;32;20092;-62
2023/02/24 02:17:35;;;;;;;0.40;0.40;;;5.70;99.90;;;;;;4412463;32;20512;-61
2023/02/24 02:20:42;;;;;;;2.42;1.37;;;5.60;99.90;;;;;;4414490;32;20097;-62
2023/02/24 02:23:47;;;;;;;5.60;2.08;;;5.50;99.90;;;;;;4410326;32;20081;-63
2023/02/24 02:26:31;;;;;;;1.60;0.73;;;5.50;99.90;;;;;;4409144;32;20132;-63
2023/02/24 02:29:22;;;;;;;0.75;0.62;;;5.50;99.90;;;;;;4426915;32;20085;-62
2023/02/24 02:32:23;;;;;;;1.10;0.88;;;5.50;99.90;;;;;;4427805;32;20116;-64
2023/02/24 02:35:10;;;;;;;1.70;1.60;;;5.60;99.90;;;;;;4417273;32;20116;-62
2023/02/24 02:37:49;;;;;;;2.00;0.95;;;5.50;99.90;;;;;;4417438;32;20152;-62
2023/02/24 02:40:39;;;;;;;0.32;0.32;;;5.40;99.90;;;;;;4418560;32;20782;-61
2023/02/24 02:43:17;;;;;;;0.60;0.60;;;5.30;99.90;;;;;;4417714;32;20086;-63
2023/02/24 02:45:51;;;;;;;0.57;0.55;;;5.10;99.90;;;;;;4430002;32;20069;-61
2023/02/24 02:48:23;;;;;;;0.40;0.40;;;5.10;99.90;;;;;;4416997;32;20081;-61
2023/02/24 02:51:02;;;;;;;0.40;0.40;;;5.10;99.90;;;;;;4415815;32;20140;-62
2023/02/24 02:53:37;;;;;;;0.65;0.65;;;5.00;99.90;;;;;;4428224;32;20077;-63
2023/02/24 02:56:11;;;;;;;0.93;0.93;;;5.00;99.90;;;;;;4431633;32;20084;-62
2023/02/24 02:58:41;;;;;;;2.90;1.73;;;5.10;99.90;;;;;;4431393;32;20069;-62
2023/02/24 03:01:09;;;;;;;0.35;0.35;;;5.10;99.90;;;;;;4414157;32;20836;-62
2023/02/24 03:03:43;;;;;;;0.40;0.40;;;5.10;99.90;;;;;;4431093;32;20097;-62
2023/02/24 03:06:32;;;;;;;0.40;0.40;;;5.00;99.90;;;;;;4431600;32;20061;-63
2023/02/24 03:09:21;;;;;;;0.50;0.50;;;5.10;99.90;;;;;;4408204;32;20100;-61
2023/02/24 03:11:52;;;;;;;34.60;1.65;;;5.00;99.90;;;;;;4417274;32;20635;-61
2023/02/24 03:14:24;;;;;;;0.40;0.40;;;4.90;99.90;;;;;;4431026;32;20089;-61
2023/02/24 03:16:52;;;;;;;0.50;0.50;;;4.90;99.90;;;;;;4432234;32;20505;-60
2023/02/24 03:19:23;;;;;;;0.37;0.37;;;5.00;99.90;;;;;;4406106;32;20101;-61
2023/02/24 03:22:03;;;;;;;0.30;0.30;;;5.10;99.90;;;;;;4407942;32;20575;-61
2023/02/24 03:24:28;;;;;;;0.40;0.40;;;5.10;99.90;;;;;;4415706;32;20168;-61
2023/02/24 03:27:05;;;;;;;0.50;0.50;;;5.00;99.90;;;;;;4430145;32;20449;-60
2023/02/24 03:29:40;;;;;;;1.27;0.73;;;5.00;99.90;;;;;;4414696;32;20093;-64
2023/02/24 03:32:42;;;;;;;4.22;0.90;;;4.80;99.90;;;;;;4427982;32;20443;-60
2023/02/24 03:35:15;;;;;;;0.60;0.60;;;4.80;99.90;;;;;;4419663;32;20077;-61
2023/02/24 03:37:41;;;;;;;0.75;0.75;;;4.70;99.90;;;;;;4413548;32;20090;-60
2023/02/24 03:40:10;;;;;;;4.03;0.73;;;4.70;99.90;;;;;;4435273;32;20125;-62
2023/02/24 03:42:39;;;;;;;0.85;0.85;;;4.80;99.90;;;;;;4409829;32;20166;-62
2023/02/24 03:45:05;;;;;;;0.40;0.40;;;4.80;99.90;;;;;;4428433;32;20135;-60
2023/02/24 03:47:32;;;;;;;1.15;1.05;;;4.80;99.90;;;;;;4414634;32;20407;-62
2023/02/24 03:49:57;;;;;;;0.50;0.50;;;4.80;99.90;;;;;;4413282;32;20082;-61
2023/02/24 03:52:40;;;;;;;0.60;0.60;;;4.80;99.90;;;;;;4431537;32;20513;-61
2023/02/24 03:55:32;;;;;;;0.80;0.80;;;4.80;99.90;;;;;;4430395;32;20089;-64
2023/02/24 03:58:11;;;;;;;0.30;0.30;;;4.80;99.90;;;;;;4418496;32;20069;-60
2023/02/24 04:01:08;;;;;;;1.73;1.15;;;4.80;99.90;;;;;;4435674;32;20237;-61
2023/02/24 04:03:56;;;;;;;0.50;0.50;;;4.80;99.90;;;;;;4419349;32;20061;-60
2023/02/24 04:06:45;;;;;;;1.23;0.90;;;4.80;99.90;;;;;;4434135;32;20512;-63
2023/02/24 04:09:32;;;;;;;1.30;1.10;;;4.70;99.90;;;;;;4416272;32;20076;-62
2023/02/24 04:12:26;;;;;;;0.62;0.62;;;4.70;99.90;;;;;;4418457;32;20160;-63
2023/02/24 04:14:57;;;;;;;0.62;0.62;;;4.70;99.90;;;;;;4416722;32;20066;-60
2023/02/24 04:17:27;;;;;;;;;;;4.70;99.90;;;;;;4429180;32;20342;-60
2023/02/24 04:19:59;;;;;;;0.70;0.70;;;4.60;99.90;;;;;;4417236;32;20005;-62
2023/02/24 04:22:26;;;;;;;0.52;0.52;;;4.60;99.90;;;;;;4413303;32;20061;-62
2023/02/24 04:24:58;;;;;;;0.55;0.45;;;4.60;99.90;;;;;;4416750;32;20064;-62
2023/02/24 04:27:27;;;;;;;5.93;0.75;;;4.60;99.90;;;;;;4410648;32;20096;-60
2023/02/24 04:29:55;;;;;;;0.50;0.50;;;4.60;99.90;;;;;;4414338;32;20356;-64
2023/02/24 04:32:24;;;;;;;0.88;0.55;;;4.50;99.90;;;;;;4416801;32;20064;-62
2023/02/24 04:34:50;;;;;;;0.37;0.37;;;4.50;99.90;;;;;;4429740;32;20073;-60
2023/02/24 04:37:21;;;;;;;0.35;0.35;;;4.50;99.90;;;;;;4413371;32;20313;-60
2023/02/24 04:39:47;;;;;;;0.40;0.40;;;4.50;99.90;;;;;;4428010;32;20455;-63
2023/02/24 04:42:13;;;;;;;2.03;1.45;;;4.50;99.90;;;;;;4429375;32;20081;-61
2023/02/24 04:44:39;;;;;;;1.17;1.00;;;4.40;99.90;;;;;;4427912;32;20088;-63
2023/02/24 04:47:04;;;;;;;0.60;0.60;;;4.40;99.90;;;;;;4431442;32;20074;-62
2023/02/24 04:49:30;;;;;;;0.57;0.57;;;4.40;99.90;;;;;;4413357;32;21354;-61
2023/02/24 04:51:56;;;;;;;1.85;1.15;;;4.50;99.90;;;;;;4415317;32;20065;-63
2023/02/24 04:54:23;;;;;;;0.50;0.50;;;4.60;99.90;;;;;;4428506;32;20096;-61
2023/02/24 04:56:49;;;;;;;0.40;0.40;;;4.60;99.90;;;;;;4413991;32;20556;-61
2023/02/24 04:59:17;;;;;;;0.40;0.40;;;4.40;99.90;;;;;;4416426;32;20080;-61
2023/02/24 05:01:43;;;;;;;0.30;0.30;;;4.40;99.90;;;;;;4407880;32;20053;-62
2023/02/24 05:04:10;;;;;;;4.85;1.10;;;4.30;99.90;;;;;;4431349;32;20592;-61
2023/02/24 05:06:39;;;;;;;1.00;0.85;;;4.40;99.90;;;;;;4430596;32;20081;-62
2023/02/24 05:09:13;;;;;;;0.50;0.50;;;4.30;99.90;;;;;;4428507;32;20106;-62
2023/02/24 05:11:41;;;;;;;0.50;0.50;;;4.30;99.90;;;;;;4413847;32;20155;-62
2023/02/24 05:14:09;;;;;;;0.73;0.73;;;4.30;99.90;;;;;;4429114;32;20077;-61
2023/02/24 05:16:34;;;;;;;3.72;1.75;;;4.30;99.90;;;;;;4414903;32;20160;-62
2023/02/24 05:21:45;;;;;;;2.60;0.88;;;4.40;99.90;;;;;;4411369;32;20391;-61
2023/02/24 05:24:11;;;;;;;0.35;0.35;;;4.40;99.90;;;;;;4431875;32;20057;-61
2023/02/24 05:26:40;;;;;;;0.40;0.40;;;4.30;99.90;;;;;;4429148;32;20089;-61
2023/02/24 05:29:06;;;;;;;0.45;0.45;;;4.30;99.90;;;;;;4431689;32;20098;-62
2023/02/24 05:31:32;;;;;;;1.00;0.73;;;4.50;99.90;;;;;;4415297;32;20114;-62
2023/02/24 05:34:01;;;;;;;0.55;0.55;;;4.40;99.90;;;;;;4418293;32;20110;-61
2023/02/24 05:36:30;;;;;;;2.50;1.05;;;4.30;99.90;;;;;;4429847;32;20085;-62
2023/02/24 05:38:57;;;;;;;0.30;0.30;;;4.30;99.90;;;;;;4414982;32;20201;-61
2023/02/24 05:41:31;;;;;;;3.50;0.90;;;4.40;99.90;;;;;;4414125;32;20439;-64
2023/02/24 05:43:57;;;;;;;25.23;1.33;;;4.40;99.90;;;;;;4415138;32;20081;-62
2023/02/24 05:46:28;;;;;;;0.50;0.50;;;4.30;99.90;;;;;;4412928;32;20066;-62
2023/02/24 05:48:55;;;;;;;0.30;0.30;;;4.20;99.90;;;;;;4429916;32;20842;-62
2023/02/24 05:51:23;;;;;;;0.30;0.30;;;4.20;99.90;;;;;;4431195;32;20093;-64
2023/02/24 05:53:50;;;;;;;0.40;0.40;;;4.10;99.90;;;;;;4427819;32;20079;-63
2023/02/24 05:56:18;;;;;;;0.30;0.30;;;4.20;99.90;;;;;;4429575;32;20097;-61
2023/02/24 05:58:44;;;;;;;0.50;0.50;;;4.20;99.90;;;;;;4429085;32;20070;-64
2023/02/24 06:01:15;;;;;;;3.37;1.12;;;4.20;99.90;;;;;;4423111;32;20117;-65
2023/02/24 06:03:45;;;;;;;1.98;1.48;;;4.10;99.90;;;;;;4414626;32;20093;-62
2023/02/24 06:06:11;;;;;;;0.45;0.45;;;4.10;99.90;;;;;;4426719;32;20116;-62
2023/02/24 06:08:41;;;;;;;0.50;0.50;;;4.10;99.90;;;;;;4413249;32;20080;-62
2023/02/24 06:11:09;;;;;;;0.50;0.50;;;4.10;99.90;;;;;;4413940;32;20076;-62
2023/02/24 06:13:36;;;;;;;0.40;0.40;;;4.20;99.90;;;;;;4414054;32;20093;-64
2023/02/24 06:16:01;;;;;;;0.45;0.45;;;4.30;99.90;;;;;;4430557;32;20142;-62
2023/02/24 06:18:28;;;;;;;1.65;1.05;;;4.30;99.90;;;;;;4414899;32;20078;-62
2023/02/24 06:20:53;;;;;;;1.85;1.65;;;4.40;99.90;;;;;;4426622;32;20078;-61
2023/02/24 06:23:25;;;;;;;0.68;0.68;;;4.30;99.90;;;;;;4425490;32;20466;-61
2023/02/24 06:25:52;;;;;;;0.40;0.40;;;4.30;99.90;;;;;;4426862;32;20530;-60
2023/02/24 06:28:18;;;;;;;0.47;0.47;;;4.30;99.90;;;;;;4413359;32;20407;-64
2023/02/24 06:30:44;;;;;;;0.82;0.82;;;4.40;99.90;;;;;;4412070;32;20086;-61
2023/02/24 06:33:10;;;;;;;0.30;0.30;;;4.30;99.90;;;;;;4403754;32;20622;-62
2023/02/24 06:35:37;;;;;;;0.47;0.47;;;4.30;99.90;;;;;;4407278;32;20060;-63
2023/02/24 06:38:03;;;;;;;1.75;1.15;;;4.40;99.90;;;;;;4417315;32;20092;-65
2023/02/24 06:40:30;;;;;;;0.40;0.40;;;4.30;99.90;;;;;;4423285;32;20065;-63
2023/02/24 06:42:55;;;;;;;0.65;0.65;;;4.30;99.90;;;;;;4421627;32;20092;-64
2023/02/24 06:45:23;;;;;;;0.62;0.62;;;4.30;99.90;;;;;;4416956;32;20085;-63
2023/02/24 06:47:49;;;;;;;0.47;0.47;;;4.30;99.90;;;;;;4422220;32;20488;-66
2023/02/24 06:50:19;;;;;;;0.98;0.98;;;4.40;99.90;;;;;;4407899;32;20077;-65
2023/02/24 06:52:47;;;;;;;0.40;0.40;;;4.40;99.90;;;;;;4409785;32;20077;-67
2023/02/24 06:55:29;;;;;;;0.45;0.45;;;4.30;99.90;;;;;;4404491;32;20102;-66
2023/02/24 06:57:57;;;;;;;0.50;0.50;;;4.30;99.90;;;;;;4387825;32;20112;-65
2023/02/24 07:00:35;;;;;;;0.50;0.50;;;4.20;99.90;;;;;;4391385;32;20494;-67
2023/02/24 07:03:13;;;;;;;0.40;0.40;;;4.30;99.90;;;;;;4381612;32;20280;-65
2023/02/24 07:05:41;;;;;;;1.55;1.35;;;4.30;99.90;;;;;;4387318;32;20926;-65
2023/02/24 07:08:07;;;;;;;0.43;0.43;;;4.30;99.90;;;;;;4385312;32;20193;-65
2023/02/24 07:10:33;;;;;;;1.15;1.05;;;4.40;99.90;;;;;;4394215;32;20418;-66
2023/02/24 07:12:59;;;;;;;0.40;0.40;;;4.50;99.90;;;;;;4395952;32;20117;-65
2023/02/24 07:15:24;;;;;;;0.60;0.45;;;4.40;99.90;;;;;;4382327;32;20082;-66
2023/02/24 07:17:53;;;;;;;0.70;0.70;;;4.40;99.90;;;;;;4394598;32;20100;-65
2023/02/24 07:20:24;;;;;;;0.45;0.45;;;4.40;99.90;;;;;;4387049;32;20777;-66
2023/02/24 07:22:50;;;;;;;0.90;0.85;;;4.40;99.90;;;;;;4400213;32;20133;-66
2023/02/24 07:25:31;;;;;;;0.40;0.40;;;4.40;99.90;;;;;;4390573;32;20098;-66
2023/02/24 07:28:00;;;;;;;0.40;0.40;;;4.40;99.90;;;;;;4395208;32;20104;-64
2023/02/24 07:30:31;;;;;;;0.60;0.60;;;4.30;99.90;;;;;;4391573;32;20064;-65
2023/02/24 07:32:58;;;;;;;1.65;1.35;;;4.40;99.90;;;;;;4379631;32;20353;-65
2023/02/24 07:35:24;;;;;;;0.50;0.50;;;4.40;99.90;;;;;;4381415;32;20635;-65
2023/02/24 07:37:50;;;;;;;0.60;0.60;;;4.40;99.90;;;;;;4371747;32;20113;-63
2023/02/24 07:40:16;;;;;;;0.43;0.43;;;4.30;99.90;;;;;;4381238;32;20800;-64
2023/02/24 07:42:43;;;;;;;0.50;0.50;;;4.40;99.90;;;;;;4388936;32;20080;-62
2023/02/24 07:45:09;;;;;;;0.40;0.40;;;4.50;99.90;;;;;;4387134;32;20482;-64
2023/02/24 07:47:35;;;;;;;0.40;0.40;;;4.40;99.90;;;;;;4382076;32;20565;-66
2023/02/24 07:50:01;;;;;;;0.40;0.40;;;4.40;99.90;;;;;;4376480;32;21192;-67
2023/02/24 07:52:31;;;;;;;0.40;0.40;;;4.30;99.90;;;;;;4386395;32;20376;-64
2023/02/24 07:54:57;;;;;;;0.30;0.30;;;4.40;99.90;;;;;;4387023;32;20160;-63
2023/02/24 07:57:24;;;;;;;1.50;1.35;;;4.40;99.90;;;;;;4367347;32;20352;-66
2023/02/24 07:59:49;;;;;;;0.50;0.50;;;4.40;99.90;;;;;;4385966;32;20217;-63
2023/02/24 08:02:15;;;;;;;2.55;1.20;;;4.50;99.90;;;;;;4371602;32;20092;-64
2023/02/24 08:04:48;;;;;;;0.40;0.40;;;4.60;99.90;;;;;;4384211;32;20121;-65
2023/02/24 08:07:15;;;;;;;3.72;1.48;;;4.50;99.90;;;;;;4367932;32;20552;-65
2023/02/24 08:12:16;;;;;;;0.40;0.40;;;4.60;99.90;;;;;;4368790;32;20118;-63
2023/02/24 08:14:43;;;;;;;10.35;1.33;;;4.70;99.90;;;;;;4370418;32;20172;-65
2023/02/24 08:17:10;;;;;;;0.30;0.30;;;4.60;99.90;;;;;;4369826;32;20105;-62
2023/02/24 08:19:38;;;;;;;0.60;0.57;;;4.50;99.90;;;;;;4362957;32;20100;-63
2023/02/24 08:22:18;;;;;;;0.40;0.40;;;4.50;99.90;;;;;;4376317;32;20723;-66
2023/02/24 08:24:49;;;;;;;0.40;0.40;;;4.60;99.90;;;;;;4389860;32;20112;-64
2023/02/24 08:27:18;;;;;;;;;;;4.50;99.90;;;;;;4366241;32;20175;-65
2023/02/24 08:30:08;;;;;;;0.60;0.60;;;4.50;99.90;;;;;;4373749;32;19979;-66
2023/02/24 08:32:42;;;;;;;3.92;0.90;;;4.60;99.90;;;;;;4364361;32;20166;-65
2023/02/24 08:35:14;;;;;;;8.25;1.58;;;4.40;99.90;;;;;;4375142;32;20086;-65
2023/02/24 08:37:46;;;;;;;0.40;0.40;;;4.50;99.90;;;;;;4377720;32;20372;-68
2023/02/24 08:40:36;;;;;;;0.40;0.40;;;4.70;99.90;;;;;;4402873;32;20164;-65
2023/02/24 08:43:14;;;;;;;0.40;0.40;;;4.60;99.90;;;;;;4398685;32;20090;-64
2023/02/24 08:45:43;;;;;;;0.40;0.40;;;4.60;99.90;;;;;;4391404;32;20140;-66
2023/02/24 08:48:17;;;;;;;0.65;0.65;;;4.70;99.90;;;;;;4359141;32;20191;-65
2023/02/24 08:50:44;;;;;;;1.48;1.37;;;5.00;99.90;;;;;;4353183;32;20118;-67
2023/02/24 08:53:17;;;;;;;0.40;0.40;;;5.00;99.90;;;;;;4377971;32;20113;-66
2023/02/24 08:55:44;;;;;;;0.40;0.40;;;5.10;99.90;;;;;;4395062;32;20117;-66
2023/02/24 08:58:16;;;;;;;0.40;0.40;;;5.10;99.90;;;;;;4387154;32;20090;-65
2023/02/24 09:00:52;;;;;;;0.40;0.40;;;5.10;99.90;;;;;;4390103;32;20090;-65
2023/02/24 09:03:32;;;;;;;0.45;0.45;;;5.20;99.90;;;;;;4387144;32;20139;-64
2023/02/24 09:06:04;;;;;;;0.40;0.40;;;5.20;99.90;;;;;;4392869;32;20207;-67
2023/02/24 09:08:32;;;;;;;0.40;0.40;;;5.20;99.90;;;;;;4364870;32;20081;-66
2023/02/24 09:10:59;;;;;;;0.52;0.52;;;5.30;99.90;;;;;;4360154;32;20103;-66
2023/02/24 09:13:31;;;;;;;0.32;0.32;;;5.30;99.90;;;;;;4397843;32;20109;-66
2023/02/24 09:15:59;;;;;;;0.40;0.40;;;5.30;99.90;;;;;;4380409;32;20262;-66
2023/02/24 09:18:29;;;;;;;0.60;0.60;;;5.30;99.90;;;;;;4398896;32;20132;-65
2023/02/24 09:20:55;;;;;;;9.68;2.30;;;5.20;99.90;;;;;;4405582;32;21030;-66
2023/02/24 09:23:28;;;;;;;3.97;1.37;;;5.10;99.90;;;;;;4405745;32;20113;-66
2023/02/24 09:25:55;;;;;;;0.55;0.55;;;5.10;99.90;;;;;;4397177;32;20153;-64
2023/02/24 09:28:25;;;;;;;12.70;1.35;;;5.20;99.90;;;;;;4393712;32;20251;-65
2023/02/24 09:30:55;;;;;;;0.40;0.40;;;5.20;99.90;;;;;;4379814;32;20153;-64
2023/02/24 09:33:23;;;;;;;0.40;0.40;;;5.20;99.90;;;;;;4391341;32;21702;-66
2023/02/24 09:36:08;;;;;;;0.40;0.40;;;5.30;99.90;;;;;;4388757;32;20513;-67
2023/02/24 09:41:30;;;;;;;0.40;0.40;;;5.40;99.90;;;;;;4380349;32;20343;-66
2023/02/24 09:44:02;;;;;;;13.55;3.60;;;5.30;99.90;;;;;;4409356;32;20100;-65
2023/02/24 09:46:34;;;;;;;0.40;0.40;;;5.30;99.90;;;;;;4413948;32;20278;-63
2023/02/24 09:49:11;;;;;;;0.52;0.52;;;5.30;99.90;;;;;;4415127;32;20545;-63
2023/02/24 09:51:44;;;;;;;1.15;0.93;;;5.20;99.90;;;;;;4407896;32;20081;-64
2023/02/24 09:54:15;;;;;;;0.40;0.40;;;5.20;99.90;;;;;;4416923;32;20240;-62
2023/02/24 09:56:56;;;;;;;15.70;0.95;;;5.10;99.90;;;;;;4406391;32;20077;-63
2023/02/24 09:59:34;;;;;;;0.50;0.50;;;5.10;99.90;;;;;;4428588;32;20275;-63
2023/02/24 10:02:27;;;;;;;1.27;0.82;;;5.30;99.90;;;;;;4424360;32;20164;-62
2023/02/24 10:05:05;;;;;;;1.05;0.95;;;5.50;99.90;;;;;;4410393;32;20081;-65
2023/02/24 10:07:37;;;;;;;0.90;0.73;;;5.60;99.90;;;;;;4422289;32;21228;-63
2023/02/24 10:10:24;;;;;;;1.55;1.00;;;5.60;99.90;;;;;;4408894;32;20128;-63
2023/02/24 10:12:57;;;;;;;0.52;0.52;;;5.60;99.90;;;;;;4419494;32;21418;-63
2023/02/24 10:16:04;;;;;;;0.50;0.50;;;5.50;99.90;;;;;;4408028;32;20575;-61
2023/02/24 10:18:26;;;;;;;0.32;0.32;;;5.50;99.90;;;;;;4409109;32;20208;-62
2023/02/24 10:20:56;;;;;;;0.32;0.32;;;5.50;99.90;;;;;;4423914;32;20081;-62
2023/02/24 10:23:55;;;;;;;0.30;0.30;;;5.50;99.90;;;;;;4420827;32;20073;-62
2023/02/24 10:26:43;;;;;;;0.40;0.40;;;5.50;99.90;;;;;;4405944;32;20088;-62
2023/02/24 10:29:42;;;;;;;0.40;0.40;;;5.50;99.90;;;;;;4420140;32;20090;-62
2023/02/24 10:32:22;;;;;;;0.30;0.30;;;5.60;99.90;;;;;;4404886;32;20090;-62
2023/02/24 10:34:49;;;;;;;0.40;0.40;;;5.60;99.90;;;;;;4405765;32;20281;-62
2023/02/24 10:37:18;;;;;;;0.40;0.40;;;5.60;99.90;;;;;;4418098;32;20145;-60
2023/02/24 10:39:48;;;;;;;0.50;0.50;;;5.60;99.90;;;;;;4404451;32;20097;-61
2023/02/24 10:42:23;;;;;;;0.80;0.80;;;5.60;99.90;;;;;;4405664;32;20232;-61
2023/02/24 10:45:10;;;;;;;0.40;0.40;;;5.80;99.90;;;;;;4421678;32;20544;-61
2023/02/24 10:47:43;;;;;;;0.75;0.35;;;5.80;99.90;;;;;;4404338;32;20085;-62
2023/02/24 10:50:21;;;;;;;0.40;0.40;;;5.90;99.90;;;;;;4424732;32;20057;-62
2023/02/24 10:58:36;;;;;;;0.40;0.40;;;5.80;99.90;;;;;;4427965;32;20089;-61
2023/02/24 11:01:12;;;;;;;0.30;0.30;;;5.80;99.90;;;;;;4405859;32;20105;-60
2023/02/24 11:03:41;;;;;;;0.93;0.88;;;5.70;99.90;;;;;;4414983;32;20505;-63
2023/02/24 11:09:18;;;;;;;0.40;0.40;;;5.40;99.90;;;;;;4424266;32;20117;-63
2023/02/24 11:17:25;;;;;;;0.93;0.93;;;5.00;99.90;;;;;;4414298;32;20834;-61
2023/02/24 11:17:35;;;;;;;0.47;0.47;;;4.80;99.90;;;;;;4417394;32;20164;-62
2023/02/24 11:20:22;;;;;;;0.40;0.40;;;4.60;99.90;;;;;;4430445;32;20076;-61
2023/02/24 11:22:51;;;;;;;0.40;0.40;;;4.30;99.90;;;;;;4412531;32;20073;-63
2023/02/24 11:25:19;;;;;;;0.40;0.40;;;4.30;99.90;;;;;;4415037;32;20074;-62
2023/02/24 11:27:45;;;;;;;0.50;0.50;;;4.20;99.90;;;;;;4427594;32;20101;-64
2023/02/24 11:30:31;;;;;;;0.57;0.57;;;4.30;99.90;;;;;;4430642;32;20064;-63
2023/02/24 11:33:19;;;;;;;0.30;0.30;;;4.20;99.90;;;;;;4401828;32;20215;-61
2023/02/24 11:36:24;;;;;;;0.55;0.55;;;4.20;99.90;;;;;;4418165;32;20057;-62
2023/02/24 11:39:24;;;;;;;1.23;1.15;;;4.00;99.90;;;;;;4407268;32;20088;-60
2023/02/24 11:41:56;;;;;;;0.60;0.60;;;3.90;99.90;;;;;;4413159;32;82812;-63
2023/02/24 11:44:29;;;;;;;0.40;0.40;;;3.80;99.90;;;;;;4427825;32;20070;-63
2023/02/24 11:47:01;;;;;;;0.40;0.40;;;3.70;99.90;;;;;;4426760;32;20570;-62
2023/02/24 11:49:34;;;;;;;0.82;0.82;;;3.70;99.90;;;;;;4412013;32;20445;-63
2023/02/24 11:52:03;;;;;;;0.50;0.50;;;3.70;99.90;;;;;;4412092;32;20519;-61
2023/02/24 11:54:38;;;;;;;0.85;0.85;;;3.70;99.90;;;;;;4413825;32;20088;-62
2023/02/24 11:57:05;;;;;;;0.32;0.32;;;3.70;99.90;;;;;;4417145;32;20274;-61
2023/02/24 11:59:37;;;;;;;0.50;0.50;;;3.60;99.90;;;;;;4413619;32;20132;-61
2023/02/24 12:02:17;;;;;;;0.40;0.40;;;3.60;99.90;;;;;;4429937;32;20123;-60
2023/02/24 12:04:51;;;;;;;0.63;0.60;;;3.70;99.90;;;;;;4430341;32;20049;-60
2023/02/24 12:07:37;;;;;;;1.33;1.23;;;3.60;99.90;;;;;;4426510;32;21361;-61
2023/02/24 12:10:26;;;;;;;0.40;0.40;;;3.50;99.90;;;;;;4415081;32;20122;-62
2023/02/24 12:13:18;;;;;;;0.37;0.37;;;3.50;99.90;;;;;;4400168;32;20128;-61
2023/02/24 12:16:15;;;;;;;0.60;0.60;;;3.50;99.90;;;;;;4418272;32;20451;-61
2023/02/24 12:18:48;;;;;;;1.35;1.25;;;3.60;99.90;;;;;;4408620;32;20082;-60
2023/02/24 12:21:24;;;;;;;0.40;0.40;;;3.60;99.90;;;;;;4416033;32;20073;-62
2023/02/24 12:23:52;;;;;;;0.40;0.40;;;3.60;99.90;;;;;;4398264;32;20073;-61
2023/02/24 12:26:24;;;;;;;0.40;0.40;;;3.50;99.90;;;;;;4427573;32;20097;-61
2023/02/24 12:29:17;;;;;;;0.30;0.30;;;3.40;99.90;;;;;;4406675;32;20188;-64
2023/02/24 12:31:56;;;;;;;0.82;0.80;;;3.50;99.90;;;;;;4411850;32;20104;-61
2023/02/24 12:34:49;;;;;;;0.62;0.62;;;3.50;99.90;;;;;;4421922;32;20089;-61
2023/02/24 12:37:41;;;;;;;0.85;0.85;;;3.60;99.90;;;;;;4410056;32;20078;-61
2023/02/24 12:40:31;;;;;;;0.40;0.40;;;3.60;99.90;;;;;;4407955;32;20097;-62
2023/02/24 12:43:15;;;;;;;0.60;0.60;;;3.70;99.90;;;;;;4411220;32;20068;-60
2023/02/24 12:46:07;;;;;;;0.60;0.60;;;3.70;99.90;;;;;;4423782;32;20404;-62
2023/02/24 12:49:03;;;;;;;11.70;3.50;;;3.60;99.90;;;;;;4413820;32;20061;-61
2023/02/24 12:51:38;;;;;;;4.40;0.65;;;3.60;99.90;;;;;;4415275;32;20350;-60
2023/02/24 12:54:12;;;;;;;0.40;0.40;;;3.70;99.90;;;;;;4428156;32;20485;-62
2023/02/24 12:56:50;;;;;;;0.35;0.35;;;3.60;99.90;;;;;;4428929;32;20057;-60
2023/02/24 12:59:20;;;;;;;0.40;0.40;;;3.60;99.90;;;;;;4414828;32;20097;-60
2023/02/24 13:01:55;;;;;;;0.45;0.45;;;3.80;99.90;;;;;;4413164;32;20126;-62
2023/02/24 13:04:44;;;;;;;0.35;0.35;;;3.80;99.90;;;;;;4411536;32;20515;-62
2023/02/24 13:07:20;;;;;;;0.40;0.40;;;3.70;99.90;;;;;;4405788;32;20652;-63
2023/02/24 13:10:25;;;;;;;4.97;1.15;;;3.60;99.90;;;;;;4429260;32;20105;-62
2023/02/24 13:13:18;;;;;;;0.40;0.40;;;3.50;99.90;;;;;;4407464;32;20084;-62
2023/02/24 13:15:54;;;;;;;0.40;0.40;;;3.60;99.90;;;;;;4408947;32;20229;-62
2023/02/24 13:18:25;;;;;;;0.88;0.88;;;3.70;99.90;;;;;;4406020;32;20089;-63
2023/02/24 13:21:03;;;;;;;0.40;0.40;;;3.50;99.90;;;;;;4420690;32;20153;-62
2023/02/24 13:23:30;;;;;;;0.73;0.73;;;3.40;99.90;;;;;;4409317;32;20812;-61
2023/02/24 13:25:56;;;;;;;0.40;0.40;;;3.40;99.90;;;;;;4399628;32;20105;-63
2023/02/24 13:28:34;;;;;;;0.40;0.40;;;3.40;99.90;;;;;;4407834;32;20081;-60
2023/02/24 13:31:04;;;;;;;1.37;0.95;;;3.50;99.90;;;;;;4422991;32;20350;-61
2023/02/24 13:33:33;;;;;;;0.98;0.98;;;3.50;99.90;;;;;;4406798;32;20089;-61
2023/02/24 13:36:11;;;;;;;0.60;0.60;;;3.40;99.90;;;;;;4404997;32;20080;-61
2023/02/24 13:38:40;;;;;;;0.50;0.50;;;3.30;99.90;;;;;;4407975;32;20456;-60
2023/02/24 13:41:27;;;;;;;0.40;0.40;;;3.40;99.90;;;;;;4421054;32;20077;-61
2023/02/24 13:43:57;;;;;;;0.40;0.40;;;3.40;99.90;;;;;;4407106;32;20186;-63
2023/02/24 13:46:24;;;;;;;8.20;0.95;;;3.40;99.90;;;;;;4398529;32;20136;-61
2023/02/24 13:48:59;;;;;;;0.30;0.30;;;3.30;99.90;;;;;;4404851;32;20149;-63